Página principal
METAR-TAF:

METAR-TAF

Aeroportos :

Aeroporto Internacional Philip S. W. Goldson

Belize, Belize

latitude: 17-32N, longitude: 088-18W, altura: 5 m

Observação actual do tempo

O boletim foi feito há 50 minutos, às 17:00 UTC
Vento 9 kt de este
Temperatura 30°C
Humidade 79%
Pressão 1013 hPa
Visibilidade 10 km ou mais
Nuvens dispersasa uma altura de 2000 ft

METAR: MZBZ 201700Z 09009KT 9999 SCT020 30/26 A2993 Q1013 RESHRA NOSIG RMK CBTOP/NW

Hora: 11:50 (17:50 UTC)

Previsão

O boletim foi feito há 2 horas e 50 minutos, às 15:00 UTC
Previsão válida de 20 às 18 UTC a 21 às 18 UTC
Vento 8 kt de este
Visibilidade 10 km ou mais
Poucas nuvensa uma altura de 2000 ft
Probabilidade 30% :
Temporariamente
de 21 às 10 UTC a 21 às 15 UTC
Visibilidade: 5000 m
Nuvens fragmentadasa uma altura de 1500 ft
aguaceiros de chuva

TAF: MZBZ 201500Z 2018/2118 08008KT 9999 FEW020 PROB30 TEMPO 2110/2115 5000 SHRA BKN015

Observações e previsões do tempo de mais de 4000 aeroportos (mensagens METAR e TAF).

As estações disponíveis são os pontos amarelos e vermelhos sobre o mapa.

Mova o rato sobre o mapa para ver o nome da estação.

Depois clique no ponto para visualizar as observações e previsões meteorológicas.

Para alterar o mapa : clique nos botões verdes com uma cruz preta para aumentar o zoom; no botão verde com uma pitada de zoom; ou nas setas verdes para mapas adjacentes.


METAR-TAF: